sensor_id;sensor_type;location;lat;lon;timestamp;P1;durP1;ratioP1;P2;durP2;ratioP2
23280;SDS011;11809;56.390;-3.266;2022-12-04T00:01:19;1.45;;;0.80;;
23280;SDS011;11809;56.390;-3.266;2022-12-04T00:03:52;1.10;;;0.70;;
23280;SDS011;11809;56.390;-3.266;2022-12-04T00:06:21;0.82;;;0.60;;
23280;SDS011;11809;56.390;-3.266;2022-12-04T00:08:51;0.73;;;0.60;;
23280;SDS011;11809;56.390;-3.266;2022-12-04T00:11:20;1.10;;;0.80;;
23280;SDS011;11809;56.390;-3.266;2022-12-04T00:13:49;1.08;;;0.77;;
23280;SDS011;11809;56.390;-3.266;2022-12-04T00:16:17;0.90;;;0.65;;
23280;SDS011;11809;56.390;-3.266;2022-12-04T00:18:47;1.13;;;0.73;;
23280;SDS011;11809;56.390;-3.266;2022-12-04T00:21:16;1.92;;;0.70;;
23280;SDS011;11809;56.390;-3.266;2022-12-04T00:23:45;1.23;;;0.82;;
23280;SDS011;11809;56.390;-3.266;2022-12-04T00:26:14;0.80;;;0.60;;
23280;SDS011;11809;56.390;-3.266;2022-12-04T00:28:44;0.98;;;0.73;;
23280;SDS011;11809;56.390;-3.266;2022-12-04T00:31:13;1.38;;;0.80;;
23280;SDS011;11809;56.390;-3.266;2022-12-04T00:33:42;1.03;;;0.73;;
23280;SDS011;11809;56.390;-3.266;2022-12-04T00:36:11;1.95;;;0.68;;
23280;SDS011;11809;56.390;-3.266;2022-12-04T00:38:40;1.25;;;0.70;;
23280;SDS011;11809;56.390;-3.266;2022-12-04T00:41:12;1.33;;;0.82;;
23280;SDS011;11809;56.390;-3.266;2022-12-04T00:43:44;1.83;;;0.82;;
23280;SDS011;11809;56.390;-3.266;2022-12-04T00:46:11;1.10;;;0.73;;
23280;SDS011;11809;56.390;-3.266;2022-12-04T00:48:39;0.75;;;0.68;;
23280;SDS011;11809;56.390;-3.266;2022-12-04T00:51:10;1.88;;;0.70;;
23280;SDS011;11809;56.390;-3.266;2022-12-04T00:53:39;3.63;;;0.80;;
23280;SDS011;11809;56.390;-3.266;2022-12-04T00:56:08;1.45;;;0.68;;
23280;SDS011;11809;56.390;-3.266;2022-12-04T00:58:38;1.98;;;0.70;;
23280;SDS011;11809;56.390;-3.266;2022-12-04T01:01:07;1.05;;;0.70;;
23280;SDS011;11809;56.390;-3.266;2022-12-04T01:03:40;0.77;;;0.60;;
23280;SDS011;11809;56.390;-3.266;2022-12-04T01:06:16;2.58;;;0.70;;
23280;SDS011;11809;56.390;-3.266;2022-12-04T01:08:45;1.00;;;0.70;;
23280;SDS011;11809;56.390;-3.266;2022-12-04T01:11:13;0.82;;;0.70;;
23280;SDS011;11809;56.390;-3.266;2022-12-04T01:13:41;1.50;;;0.70;;
23280;SDS011;11809;56.390;-3.266;2022-12-04T01:16:14;2.25;;;0.70;;
23280;SDS011;11809;56.390;-3.266;2022-12-04T01:18:42;1.23;;;0.60;;
23280;SDS011;11809;56.390;-3.266;2022-12-04T01:21:10;1.08;;;0.60;;
23280;SDS011;11809;56.390;-3.266;2022-12-04T01:23:37;0.70;;;0.65;;
23280;SDS011;11809;56.390;-3.266;2022-12-04T01:26:04;1.70;;;0.80;;
23280;SDS011;11809;56.390;-3.266;2022-12-04T01:28:32;1.73;;;0.77;;
23280;SDS011;11809;56.390;-3.266;2022-12-04T01:31:00;1.90;;;0.80;;
23280;SDS011;11809;56.390;-3.266;2022-12-04T01:33:30;2.53;;;0.83;;
23280;SDS011;11809;56.390;-3.266;2022-12-04T01:35:59;1.20;;;0.60;;
23280;SDS011;11809;56.390;-3.266;2022-12-04T01:38:27;0.70;;;0.60;;
23280;SDS011;11809;56.390;-3.266;2022-12-04T01:40:55;0.98;;;0.70;;
23280;SDS011;11809;56.390;-3.266;2022-12-04T01:43:23;1.52;;;0.63;;
23280;SDS011;11809;56.390;-3.266;2022-12-04T01:45:58;0.80;;;0.60;;
23280;SDS011;11809;56.390;-3.266;2022-12-04T01:53:33;1.05;;;0.70;;
23280;SDS011;11809;56.390;-3.266;2022-12-04T01:56:04;1.13;;;0.60;;
23280;SDS011;11809;56.390;-3.266;2022-12-04T01:58:34;1.30;;;0.60;;
23280;SDS011;11809;56.390;-3.266;2022-12-04T02:01:07;0.70;;;0.60;;
23280;SDS011;11809;56.390;-3.266;2022-12-04T02:03:35;1.75;;;0.80;;
23280;SDS011;11809;56.390;-3.266;2022-12-04T02:06:04;0.70;;;0.50;;
23280;SDS011;11809;56.390;-3.266;2022-12-04T02:08:32;2.50;;;0.70;;
23280;SDS011;11809;56.390;-3.266;2022-12-04T02:21:28;0.90;;;0.63;;
23280;SDS011;11809;56.390;-3.266;2022-12-04T02:27:00;2.08;;;0.60;;
23280;SDS011;11809;56.390;-3.266;2022-12-04T02:29:47;0.77;;;0.57;;
23280;SDS011;11809;56.390;-3.266;2022-12-04T02:32:46;1.80;;;0.60;;
23280;SDS011;11809;56.390;-3.266;2022-12-04T02:35:21;2.03;;;0.60;;
23280;SDS011;11809;56.390;-3.266;2022-12-04T02:38:39;1.83;;;0.60;;
23280;SDS011;11809;56.390;-3.266;2022-12-04T02:41:54;0.80;;;0.60;;
23280;SDS011;11809;56.390;-3.266;2022-12-04T02:44:01;0.93;;;0.60;;
23280;SDS011;11809;56.390;-3.266;2022-12-04T02:46:35;1.05;;;0.60;;
23280;SDS011;11809;56.390;-3.266;2022-12-04T02:49:07;1.35;;;0.70;;
23280;SDS011;11809;56.390;-3.266;2022-12-04T02:51:38;1.02;;;0.60;;
23280;SDS011;11809;56.390;-3.266;2022-12-04T02:54:12;1.10;;;0.50;;
23280;SDS011;11809;56.390;-3.266;2022-12-04T02:56:44;2.35;;;0.70;;
23280;SDS011;11809;56.390;-3.266;2022-12-04T03:02:17;0.60;;;0.40;;
23280;SDS011;11809;56.390;-3.266;2022-12-04T03:04:50;1.20;;;0.55;;
23280;SDS011;11809;56.390;-3.266;2022-12-04T03:07:26;0.70;;;0.60;;
23280;SDS011;11809;56.390;-3.266;2022-12-04T03:10:00;0.93;;;0.80;;
23280;SDS011;11809;56.390;-3.266;2022-12-04T03:15:07;1.15;;;0.70;;
23280;SDS011;11809;56.390;-3.266;2022-12-04T03:18:24;1.23;;;0.70;;
23280;SDS011;11809;56.390;-3.266;2022-12-04T03:20:52;1.05;;;0.60;;
23280;SDS011;11809;56.390;-3.266;2022-12-04T03:23:27;0.98;;;0.50;;
23280;SDS011;11809;56.390;-3.266;2022-12-04T03:26:09;0.95;;;0.70;;
23280;SDS011;11809;56.390;-3.266;2022-12-04T03:31:34;0.88;;;0.60;;
23280;SDS011;11809;56.390;-3.266;2022-12-04T03:34:03;0.95;;;0.52;;
23280;SDS011;11809;56.390;-3.266;2022-12-04T03:36:35;0.80;;;0.60;;
23280;SDS011;11809;56.390;-3.266;2022-12-04T03:39:16;1.48;;;0.80;;
23280;SDS011;11809;56.390;-3.266;2022-12-04T03:44:27;1.30;;;0.60;;
23280;SDS011;11809;56.390;-3.266;2022-12-04T03:47:02;0.50;;;0.50;;
23280;SDS011;11809;56.390;-3.266;2022-12-04T03:52:13;0.65;;;0.50;;
23280;SDS011;11809;56.390;-3.266;2022-12-04T03:54:49;2.45;;;0.60;;
23280;SDS011;11809;56.390;-3.266;2022-12-04T03:57:24;0.32;;;0.32;;
23280;SDS011;11809;56.390;-3.266;2022-12-04T04:02:32;1.40;;;0.40;;
23280;SDS011;11809;56.390;-3.266;2022-12-04T04:05:04;1.67;;;0.70;;
23280;SDS011;11809;56.390;-3.266;2022-12-04T04:07:52;2.05;;;0.60;;
23280;SDS011;11809;56.390;-3.266;2022-12-04T04:10:23;0.60;;;0.50;;
23280;SDS011;11809;56.390;-3.266;2022-12-04T04:12:57;1.00;;;0.85;;
23280;SDS011;11809;56.390;-3.266;2022-12-04T04:15:47;1.20;;;0.50;;
23280;SDS011;11809;56.390;-3.266;2022-12-04T04:18:37;1.38;;;0.50;;
23280;SDS011;11809;56.390;-3.266;2022-12-04T04:21:28;1.17;;;0.60;;
23280;SDS011;11809;56.390;-3.266;2022-12-04T04:25:17;1.73;;;0.50;;
23280;SDS011;11809;56.390;-3.266;2022-12-04T04:27:15;1.00;;;0.55;;
23280;SDS011;11809;56.390;-3.266;2022-12-04T04:29:42;0.75;;;0.50;;
23280;SDS011;11809;56.390;-3.266;2022-12-04T04:35:15;0.77;;;0.50;;
23280;SDS011;11809;56.390;-3.266;2022-12-04T04:37:56;0.80;;;0.60;;
23280;SDS011;11809;56.390;-3.266;2022-12-04T04:40:43;1.15;;;0.50;;
23280;SDS011;11809;56.390;-3.266;2022-12-04T04:43:22;1.27;;;0.73;;
23280;SDS011;11809;56.390;-3.266;2022-12-04T04:45:52;1.20;;;0.50;;
23280;SDS011;11809;56.390;-3.266;2022-12-04T04:51:00;0.90;;;0.60;;
23280;SDS011;11809;56.390;-3.266;2022-12-04T04:53:29;0.43;;;0.40;;
23280;SDS011;11809;56.390;-3.266;2022-12-04T04:56:03;1.58;;;0.85;;
23280;SDS011;11809;56.390;-3.266;2022-12-04T04:58:31;0.65;;;0.55;;
23280;SDS011;11809;56.390;-3.266;2022-12-04T05:01:03;1.50;;;0.70;;
23280;SDS011;11809;56.390;-3.266;2022-12-04T05:03:32;0.63;;;0.47;;
23280;SDS011;11809;56.390;-3.266;2022-12-04T05:06:00;2.35;;;0.50;;
23280;SDS011;11809;56.390;-3.266;2022-12-04T05:08:27;1.95;;;0.52;;
23280;SDS011;11809;56.390;-3.266;2022-12-04T05:10:54;4.15;;;0.77;;
23280;SDS011;11809;56.390;-3.266;2022-12-04T05:13:21;0.93;;;0.52;;
23280;SDS011;11809;56.390;-3.266;2022-12-04T05:15:55;0.85;;;0.60;;
23280;SDS011;11809;56.390;-3.266;2022-12-04T05:18:29;0.98;;;0.60;;
23280;SDS011;11809;56.390;-3.266;2022-12-04T05:20:57;1.08;;;0.50;;
23280;SDS011;11809;56.390;-3.266;2022-12-04T05:23:24;0.77;;;0.60;;
23280;SDS011;11809;56.390;-3.266;2022-12-04T05:25:57;1.05;;;0.70;;
23280;SDS011;11809;56.390;-3.266;2022-12-04T05:28:28;1.70;;;0.50;;
23280;SDS011;11809;56.390;-3.266;2022-12-04T05:30:55;1.50;;;0.70;;
23280;SDS011;11809;56.390;-3.266;2022-12-04T05:33:23;2.13;;;0.70;;
23280;SDS011;11809;56.390;-3.266;2022-12-04T05:35:57;1.48;;;0.57;;
23280;SDS011;11809;56.390;-3.266;2022-12-04T05:38:25;2.33;;;0.70;;
23280;SDS011;11809;56.390;-3.266;2022-12-04T05:40:53;0.90;;;0.70;;
23280;SDS011;11809;56.390;-3.266;2022-12-04T05:43:19;1.33;;;0.63;;
23280;SDS011;11809;56.390;-3.266;2022-12-04T05:45:46;1.77;;;0.50;;
23280;SDS011;11809;56.390;-3.266;2022-12-04T05:48:13;1.23;;;0.63;;
23280;SDS011;11809;56.390;-3.266;2022-12-04T05:50:40;1.55;;;0.63;;
23280;SDS011;11809;56.390;-3.266;2022-12-04T05:53:07;1.58;;;0.50;;
23280;SDS011;11809;56.390;-3.266;2022-12-04T05:55:35;1.10;;;0.70;;
23280;SDS011;11809;56.390;-3.266;2022-12-04T05:58:02;2.28;;;0.70;;
23280;SDS011;11809;56.390;-3.266;2022-12-04T06:00:30;3.50;;;0.70;;
23280;SDS011;11809;56.390;-3.266;2022-12-04T06:02:58;1.13;;;0.60;;
23280;SDS011;11809;56.390;-3.266;2022-12-04T06:05:25;1.63;;;0.70;;
23280;SDS011;11809;56.390;-3.266;2022-12-04T06:07:52;2.47;;;0.60;;
23280;SDS011;11809;56.390;-3.266;2022-12-04T06:10:19;1.15;;;0.65;;
23280;SDS011;11809;56.390;-3.266;2022-12-04T06:12:46;1.40;;;0.60;;
23280;SDS011;11809;56.390;-3.266;2022-12-04T06:15:13;1.63;;;0.70;;
23280;SDS011;11809;56.390;-3.266;2022-12-04T06:17:39;1.75;;;0.63;;
23280;SDS011;11809;56.390;-3.266;2022-12-04T06:20:06;0.68;;;0.63;;
23280;SDS011;11809;56.390;-3.266;2022-12-04T06:22:37;1.00;;;0.60;;
23280;SDS011;11809;56.390;-3.266;2022-12-04T06:25:04;1.25;;;0.60;;
23280;SDS011;11809;56.390;-3.266;2022-12-04T06:27:32;2.05;;;0.70;;
23280;SDS011;11809;56.390;-3.266;2022-12-04T06:29:59;2.00;;;0.60;;
23280;SDS011;11809;56.390;-3.266;2022-12-04T06:32:26;0.77;;;0.50;;
23280;SDS011;11809;56.390;-3.266;2022-12-04T06:34:53;1.60;;;0.60;;
23280;SDS011;11809;56.390;-3.266;2022-12-04T06:37:21;1.58;;;0.50;;
23280;SDS011;11809;56.390;-3.266;2022-12-04T06:39:49;1.80;;;0.85;;
23280;SDS011;11809;56.390;-3.266;2022-12-04T06:42:16;4.60;;;0.90;;
23280;SDS011;11809;56.390;-3.266;2022-12-04T06:44:43;2.05;;;0.60;;
23280;SDS011;11809;56.390;-3.266;2022-12-04T06:47:10;1.67;;;0.50;;
23280;SDS011;11809;56.390;-3.266;2022-12-04T06:49:37;2.55;;;0.60;;
23280;SDS011;11809;56.390;-3.266;2022-12-04T06:52:04;0.55;;;0.50;;
23280;SDS011;11809;56.390;-3.266;2022-12-04T06:54:31;1.35;;;0.50;;
23280;SDS011;11809;56.390;-3.266;2022-12-04T06:56:58;0.50;;;0.50;;
23280;SDS011;11809;56.390;-3.266;2022-12-04T06:59:25;0.68;;;0.40;;
23280;SDS011;11809;56.390;-3.266;2022-12-04T07:01:53;2.35;;;0.60;;
23280;SDS011;11809;56.390;-3.266;2022-12-04T07:04:20;1.00;;;0.50;;
23280;SDS011;11809;56.390;-3.266;2022-12-04T07:06:47;0.82;;;0.60;;
23280;SDS011;11809;56.390;-3.266;2022-12-04T07:09:14;0.50;;;0.45;;
23280;SDS011;11809;56.390;-3.266;2022-12-04T07:11:43;1.40;;;0.68;;
23280;SDS011;11809;56.390;-3.266;2022-12-04T07:14:11;2.25;;;0.60;;
23280;SDS011;11809;56.390;-3.266;2022-12-04T07:16:38;2.28;;;0.80;;
23280;SDS011;11809;56.390;-3.266;2022-12-04T07:19:08;1.17;;;0.50;;
23280;SDS011;11809;56.390;-3.266;2022-12-04T07:21:36;1.13;;;0.75;;
23280;SDS011;11809;56.390;-3.266;2022-12-04T07:24:03;1.13;;;0.70;;
23280;SDS011;11809;56.390;-3.266;2022-12-04T07:26:30;2.20;;;0.60;;
23280;SDS011;11809;56.390;-3.266;2022-12-04T07:28:58;2.47;;;0.80;;
23280;SDS011;11809;56.390;-3.266;2022-12-04T07:31:25;1.30;;;0.70;;
23280;SDS011;11809;56.390;-3.266;2022-12-04T07:33:55;1.63;;;0.73;;
23280;SDS011;11809;56.390;-3.266;2022-12-04T07:36:22;1.60;;;0.70;;
23280;SDS011;11809;56.390;-3.266;2022-12-04T07:38:50;3.53;;;0.60;;
23280;SDS011;11809;56.390;-3.266;2022-12-04T07:41:17;3.65;;;0.60;;
23280;SDS011;11809;56.390;-3.266;2022-12-04T07:43:45;2.35;;;0.80;;
23280;SDS011;11809;56.390;-3.266;2022-12-04T07:46:13;6.35;;;1.27;;
23280;SDS011;11809;56.390;-3.266;2022-12-04T07:48:42;4.40;;;0.90;;
23280;SDS011;11809;56.390;-3.266;2022-12-04T07:51:19;4.80;;;0.90;;
23280;SDS011;11809;56.390;-3.266;2022-12-04T07:53:49;17.48;;;1.50;;
23280;SDS011;11809;56.390;-3.266;2022-12-04T07:56:17;2.95;;;0.88;;
23280;SDS011;11809;56.390;-3.266;2022-12-04T07:58:45;3.55;;;0.98;;
23280;SDS011;11809;56.390;-3.266;2022-12-04T08:01:16;2.58;;;0.70;;
23280;SDS011;11809;56.390;-3.266;2022-12-04T08:03:47;4.90;;;0.70;;
23280;SDS011;11809;56.390;-3.266;2022-12-04T08:06:17;4.72;;;0.88;;
23280;SDS011;11809;56.390;-3.266;2022-12-04T08:08:46;4.97;;;0.90;;
23280;SDS011;11809;56.390;-3.266;2022-12-04T08:11:15;7.80;;;1.10;;
23280;SDS011;11809;56.390;-3.266;2022-12-04T08:13:45;6.38;;;0.80;;
23280;SDS011;11809;56.390;-3.266;2022-12-04T08:16:11;8.20;;;1.17;;
23280;SDS011;11809;56.390;-3.266;2022-12-04T08:18:40;5.65;;;0.80;;
23280;SDS011;11809;56.390;-3.266;2022-12-04T08:21:13;3.25;;;0.70;;
23280;SDS011;11809;56.390;-3.266;2022-12-04T08:23:41;2.30;;;0.70;;
23280;SDS011;11809;56.390;-3.266;2022-12-04T08:26:10;4.00;;;0.70;;
23280;SDS011;11809;56.390;-3.266;2022-12-04T08:28:39;3.30;;;0.77;;
23280;SDS011;11809;56.390;-3.266;2022-12-04T08:31:07;1.80;;;0.95;;
23280;SDS011;11809;56.390;-3.266;2022-12-04T08:33:38;2.22;;;0.60;;
23280;SDS011;11809;56.390;-3.266;2022-12-04T08:36:07;0.90;;;0.55;;
23280;SDS011;11809;56.390;-3.266;2022-12-04T08:38:35;3.28;;;0.60;;
23280;SDS011;11809;56.390;-3.266;2022-12-04T08:41:03;1.50;;;0.80;;
23280;SDS011;11809;56.390;-3.266;2022-12-04T08:43:32;3.50;;;0.65;;
23280;SDS011;11809;56.390;-3.266;2022-12-04T08:46:00;4.70;;;0.60;;
23280;SDS011;11809;56.390;-3.266;2022-12-04T08:48:29;4.40;;;0.70;;
23280;SDS011;11809;56.390;-3.266;2022-12-04T08:50:56;1.17;;;0.50;;
23280;SDS011;11809;56.390;-3.266;2022-12-04T08:53:23;3.25;;;0.70;;
23280;SDS011;11809;56.390;-3.266;2022-12-04T08:55:51;3.20;;;0.60;;
23280;SDS011;11809;56.390;-3.266;2022-12-04T08:58:19;2.30;;;0.63;;
23280;SDS011;11809;56.390;-3.266;2022-12-04T09:00:46;2.45;;;0.60;;
23280;SDS011;11809;56.390;-3.266;2022-12-04T09:03:14;3.25;;;0.82;;
23280;SDS011;11809;56.390;-3.266;2022-12-04T09:05:43;5.15;;;0.80;;
23280;SDS011;11809;56.390;-3.266;2022-12-04T09:10:42;1.48;;;0.80;;
23280;SDS011;11809;56.390;-3.266;2022-12-04T09:13:10;4.40;;;1.02;;
23280;SDS011;11809;56.390;-3.266;2022-12-04T09:15:38;4.97;;;0.75;;
23280;SDS011;11809;56.390;-3.266;2022-12-04T09:18:06;4.07;;;0.93;;
23280;SDS011;11809;56.390;-3.266;2022-12-04T09:20:34;10.60;;;1.00;;
23280;SDS011;11809;56.390;-3.266;2022-12-04T09:23:03;6.88;;;0.90;;
23280;SDS011;11809;56.390;-3.266;2022-12-04T09:25:36;8.70;;;1.30;;
23280;SDS011;11809;56.390;-3.266;2022-12-04T09:28:03;12.60;;;1.25;;
23280;SDS011;11809;56.390;-3.266;2022-12-04T09:30:30;8.30;;;0.90;;
23280;SDS011;11809;56.390;-3.266;2022-12-04T09:32:58;6.05;;;0.90;;
23280;SDS011;11809;56.390;-3.266;2022-12-04T09:35:25;7.63;;;0.90;;
23280;SDS011;11809;56.390;-3.266;2022-12-04T09:37:52;8.63;;;0.85;;
23280;SDS011;11809;56.390;-3.266;2022-12-04T09:40:26;5.38;;;1.08;;
23280;SDS011;11809;56.390;-3.266;2022-12-04T09:45:54;5.68;;;0.77;;
23280;SDS011;11809;56.390;-3.266;2022-12-04T09:48:31;4.55;;;0.90;;
23280;SDS011;11809;56.390;-3.266;2022-12-04T09:51:03;3.53;;;1.08;;
23280;SDS011;11809;56.390;-3.266;2022-12-04T09:53:36;9.15;;;1.10;;
23280;SDS011;11809;56.390;-3.266;2022-12-04T09:56:13;7.65;;;0.80;;
23280;SDS011;11809;56.390;-3.266;2022-12-04T09:58:49;7.22;;;0.80;;
23280;SDS011;11809;56.390;-3.266;2022-12-04T10:01:22;26.08;;;2.30;;
23280;SDS011;11809;56.390;-3.266;2022-12-04T10:03:53;10.73;;;1.63;;
23280;SDS011;11809;56.390;-3.266;2022-12-04T10:06:31;7.97;;;1.65;;
23280;SDS011;11809;56.390;-3.266;2022-12-04T10:09:21;6.13;;;0.90;;
23280;SDS011;11809;56.390;-3.266;2022-12-04T10:14:49;8.73;;;1.40;;
23280;SDS011;11809;56.390;-3.266;2022-12-04T10:25:46;9.48;;;1.20;;
23280;SDS011;11809;56.390;-3.266;2022-12-04T10:28:32;10.07;;;1.00;;
23280;SDS011;11809;56.390;-3.266;2022-12-04T10:31:02;1.63;;;0.65;;
23280;SDS011;11809;56.390;-3.266;2022-12-04T10:36:11;2.90;;;1.02;;
23280;SDS011;11809;56.390;-3.266;2022-12-04T10:38:46;4.85;;;1.00;;
23280;SDS011;11809;56.390;-3.266;2022-12-04T10:41:37;5.30;;;0.82;;
23280;SDS011;11809;56.390;-3.266;2022-12-04T10:44:14;6.25;;;0.80;;
23280;SDS011;11809;56.390;-3.266;2022-12-04T10:46:43;2.75;;;0.75;;
23280;SDS011;11809;56.390;-3.266;2022-12-04T10:49:19;4.63;;;0.73;;
23280;SDS011;11809;56.390;-3.266;2022-12-04T10:51:50;4.45;;;0.82;;
23280;SDS011;11809;56.390;-3.266;2022-12-04T10:54:26;4.22;;;0.90;;
23280;SDS011;11809;56.390;-3.266;2022-12-04T10:57:07;2.75;;;0.80;;
23280;SDS011;11809;56.390;-3.266;2022-12-04T10:59:55;3.08;;;0.60;;
23280;SDS011;11809;56.390;-3.266;2022-12-04T11:02:31;3.05;;;0.63;;
23280;SDS011;11809;56.390;-3.266;2022-12-04T11:05:21;3.67;;;0.80;;
23280;SDS011;11809;56.390;-3.266;2022-12-04T11:07:57;2.08;;;0.80;;
23280;SDS011;11809;56.390;-3.266;2022-12-04T11:10:40;4.38;;;0.77;;
23280;SDS011;11809;56.390;-3.266;2022-12-04T11:15:46;6.63;;;0.80;;
23280;SDS011;11809;56.390;-3.266;2022-12-04T11:18:17;5.60;;;1.00;;
23280;SDS011;11809;56.390;-3.266;2022-12-04T11:20:49;7.55;;;0.88;;
23280;SDS011;11809;56.390;-3.266;2022-12-04T11:23:39;10.65;;;1.02;;
23280;SDS011;11809;56.390;-3.266;2022-12-04T11:26:08;9.30;;;1.67;;
23280;SDS011;11809;56.390;-3.266;2022-12-04T11:28:37;15.15;;;1.90;;
23280;SDS011;11809;56.390;-3.266;2022-12-04T11:31:08;13.57;;;1.52;;
23280;SDS011;11809;56.390;-3.266;2022-12-04T11:33:54;7.22;;;1.30;;
23280;SDS011;11809;56.390;-3.266;2022-12-04T11:36:28;8.75;;;1.42;;
23280;SDS011;11809;56.390;-3.266;2022-12-04T11:41:37;12.77;;;1.35;;
23280;SDS011;11809;56.390;-3.266;2022-12-04T11:44:05;22.23;;;6.05;;
23280;SDS011;11809;56.390;-3.266;2022-12-04T11:46:33;15.70;;;2.80;;
23280;SDS011;11809;56.390;-3.266;2022-12-04T11:49:00;7.57;;;1.63;;
23280;SDS011;11809;56.390;-3.266;2022-12-04T11:56:44;9.30;;;1.60;;
23280;SDS011;11809;56.390;-3.266;2022-12-04T12:02:20;6.50;;;1.40;;
23280;SDS011;11809;56.390;-3.266;2022-12-04T12:22:35;2.47;;;0.85;;
23280;SDS011;11809;56.390;-3.266;2022-12-04T12:25:01;7.88;;;1.25;;
23280;SDS011;11809;56.390;-3.266;2022-12-04T12:30:20;8.68;;;1.27;;
23280;SDS011;11809;56.390;-3.266;2022-12-04T12:35:26;11.57;;;2.08;;
23280;SDS011;11809;56.390;-3.266;2022-12-04T12:40:46;7.53;;;0.90;;
23280;SDS011;11809;56.390;-3.266;2022-12-04T12:43:23;12.75;;;1.17;;
23280;SDS011;11809;56.390;-3.266;2022-12-04T12:51:40;5.88;;;1.30;;
23280;SDS011;11809;56.390;-3.266;2022-12-04T12:57:00;7.75;;;1.05;;
23280;SDS011;11809;56.390;-3.266;2022-12-04T12:59:31;2.58;;;0.73;;
23280;SDS011;11809;56.390;-3.266;2022-12-04T13:02:03;4.03;;;0.85;;
23280;SDS011;11809;56.390;-3.266;2022-12-04T13:04:42;1.90;;;0.60;;
23280;SDS011;11809;56.390;-3.266;2022-12-04T13:09:46;10.50;;;1.35;;
23280;SDS011;11809;56.390;-3.266;2022-12-04T13:12:19;3.88;;;0.85;;
23280;SDS011;11809;56.390;-3.266;2022-12-04T13:14:48;2.10;;;0.77;;
23280;SDS011;11809;56.390;-3.266;2022-12-04T13:17:17;1.27;;;0.80;;
23280;SDS011;11809;56.390;-3.266;2022-12-04T13:19:50;2.70;;;0.77;;
23280;SDS011;11809;56.390;-3.266;2022-12-04T13:28:11;20.75;;;1.50;;
23280;SDS011;11809;56.390;-3.266;2022-12-04T13:31:29;1.77;;;0.60;;
23280;SDS011;11809;56.390;-3.266;2022-12-04T13:33:52;2.63;;;0.82;;
23280;SDS011;11809;56.390;-3.266;2022-12-04T13:42:25;4.72;;;0.70;;
23280;SDS011;11809;56.390;-3.266;2022-12-04T13:45:23;9.02;;;1.30;;
23280;SDS011;11809;56.390;-3.266;2022-12-04T13:47:56;2.63;;;1.33;;
23280;SDS011;11809;56.390;-3.266;2022-12-04T13:50:26;2.83;;;0.95;;
23280;SDS011;11809;56.390;-3.266;2022-12-04T13:52:59;4.55;;;1.10;;
23280;SDS011;11809;56.390;-3.266;2022-12-04T13:55:37;4.38;;;0.82;;
23280;SDS011;11809;56.390;-3.266;2022-12-04T14:00:39;3.70;;;0.82;;
23280;SDS011;11809;56.390;-3.266;2022-12-04T14:06:48;2.15;;;0.80;;
23280;SDS011;11809;56.390;-3.266;2022-12-04T14:09:21;3.10;;;1.20;;
23280;SDS011;11809;56.390;-3.266;2022-12-04T14:12:01;3.42;;;1.10;;
23280;SDS011;11809;56.390;-3.266;2022-12-04T14:14:35;4.32;;;1.40;;
23280;SDS011;11809;56.390;-3.266;2022-12-04T14:17:24;5.10;;;1.30;;
23280;SDS011;11809;56.390;-3.266;2022-12-04T14:19:55;7.03;;;1.60;;
23280;SDS011;11809;56.390;-3.266;2022-12-04T14:25:05;14.02;;;1.40;;
23280;SDS011;11809;56.390;-3.266;2022-12-04T14:30:18;3.28;;;1.20;;
23280;SDS011;11809;56.390;-3.266;2022-12-04T14:35:42;3.60;;;1.65;;
23280;SDS011;11809;56.390;-3.266;2022-12-04T14:38:17;6.20;;;1.40;;
23280;SDS011;11809;56.390;-3.266;2022-12-04T14:40:47;2.97;;;1.30;;
23280;SDS011;11809;56.390;-3.266;2022-12-04T14:43:21;5.60;;;1.57;;
23280;SDS011;11809;56.390;-3.266;2022-12-04T14:45:53;4.75;;;1.60;;
23280;SDS011;11809;56.390;-3.266;2022-12-04T14:51:33;2.72;;;1.33;;
23280;SDS011;11809;56.390;-3.266;2022-12-04T14:57:23;4.35;;;1.50;;
23280;SDS011;11809;56.390;-3.266;2022-12-04T14:59:55;3.58;;;1.33;;
23280;SDS011;11809;56.390;-3.266;2022-12-04T15:02:41;9.35;;;1.50;;
23280;SDS011;11809;56.390;-3.266;2022-12-04T15:05:17;5.47;;;1.65;;
23280;SDS011;11809;56.390;-3.266;2022-12-04T15:08:04;4.45;;;1.20;;
23280;SDS011;11809;56.390;-3.266;2022-12-04T15:10:32;7.90;;;1.92;;
23280;SDS011;11809;56.390;-3.266;2022-12-04T15:13:28;13.25;;;1.80;;
23280;SDS011;11809;56.390;-3.266;2022-12-04T15:16:06;6.65;;;1.63;;
23280;SDS011;11809;56.390;-3.266;2022-12-04T15:18:55;9.40;;;1.30;;
23280;SDS011;11809;56.390;-3.266;2022-12-04T15:21:40;8.50;;;1.38;;
23280;SDS011;11809;56.390;-3.266;2022-12-04T15:24:10;2.92;;;1.30;;
23280;SDS011;11809;56.390;-3.266;2022-12-04T15:26:46;2.50;;;1.02;;
23280;SDS011;11809;56.390;-3.266;2022-12-04T15:29:27;2.00;;;0.90;;
23280;SDS011;11809;56.390;-3.266;2022-12-04T15:31:58;2.28;;;0.90;;
23280;SDS011;11809;56.390;-3.266;2022-12-04T15:34:32;16.67;;;1.50;;
23280;SDS011;11809;56.390;-3.266;2022-12-04T15:37:12;3.40;;;1.13;;
23280;SDS011;11809;56.390;-3.266;2022-12-04T15:39:50;3.58;;;0.80;;
23280;SDS011;11809;56.390;-3.266;2022-12-04T15:44:59;6.03;;;1.30;;
23280;SDS011;11809;56.390;-3.266;2022-12-04T15:55:37;3.83;;;1.08;;
23280;SDS011;11809;56.390;-3.266;2022-12-04T15:58:17;8.80;;;1.33;;
23280;SDS011;11809;56.390;-3.266;2022-12-04T16:11:27;8.68;;;3.70;;
23280;SDS011;11809;56.390;-3.266;2022-12-04T16:14:03;13.82;;;3.40;;
23280;SDS011;11809;56.390;-3.266;2022-12-04T16:16:51;8.38;;;2.65;;
23280;SDS011;11809;56.390;-3.266;2022-12-04T16:21:55;11.82;;;3.83;;
23280;SDS011;11809;56.390;-3.266;2022-12-04T16:24:22;7.63;;;3.22;;
23280;SDS011;11809;56.390;-3.266;2022-12-04T16:26:51;13.25;;;3.38;;
23280;SDS011;11809;56.390;-3.266;2022-12-04T16:29:21;6.18;;;2.85;;
23280;SDS011;11809;56.390;-3.266;2022-12-04T16:31:49;5.38;;;2.53;;
23280;SDS011;11809;56.390;-3.266;2022-12-04T16:34:17;8.35;;;2.47;;
23280;SDS011;11809;56.390;-3.266;2022-12-04T16:36:46;5.53;;;2.15;;
23280;SDS011;11809;56.390;-3.266;2022-12-04T16:39:14;3.28;;;1.90;;
23280;SDS011;11809;56.390;-3.266;2022-12-04T16:41:41;2.13;;;1.40;;
23280;SDS011;11809;56.390;-3.266;2022-12-04T16:44:11;4.68;;;1.50;;
23280;SDS011;11809;56.390;-3.266;2022-12-04T16:46:41;2.42;;;1.48;;
23280;SDS011;11809;56.390;-3.266;2022-12-04T16:49:09;6.47;;;1.67;;
23280;SDS011;11809;56.390;-3.266;2022-12-04T16:51:40;2.70;;;1.40;;
23280;SDS011;11809;56.390;-3.266;2022-12-04T16:54:12;4.32;;;1.67;;
23280;SDS011;11809;56.390;-3.266;2022-12-04T16:56:41;3.72;;;1.48;;
23280;SDS011;11809;56.390;-3.266;2022-12-04T16:59:09;3.42;;;1.38;;
23280;SDS011;11809;56.390;-3.266;2022-12-04T17:01:39;1.70;;;1.27;;
23280;SDS011;11809;56.390;-3.266;2022-12-04T17:04:11;2.35;;;1.38;;
23280;SDS011;11809;56.390;-3.266;2022-12-04T17:06:39;5.13;;;1.55;;
23280;SDS011;11809;56.390;-3.266;2022-12-04T17:09:09;9.68;;;1.45;;
23280;SDS011;11809;56.390;-3.266;2022-12-04T17:11:37;4.13;;;1.23;;
23280;SDS011;11809;56.390;-3.266;2022-12-04T17:14:05;3.03;;;1.30;;
23280;SDS011;11809;56.390;-3.266;2022-12-04T17:16:33;5.68;;;1.50;;
23280;SDS011;11809;56.390;-3.266;2022-12-04T17:19:07;8.55;;;1.52;;
23280;SDS011;11809;56.390;-3.266;2022-12-04T17:21:37;5.23;;;1.40;;
23280;SDS011;11809;56.390;-3.266;2022-12-04T17:24:05;4.30;;;1.45;;
23280;SDS011;11809;56.390;-3.266;2022-12-04T17:26:33;6.57;;;1.23;;
23280;SDS011;11809;56.390;-3.266;2022-12-04T17:29:00;2.53;;;1.30;;
23280;SDS011;11809;56.390;-3.266;2022-12-04T17:31:28;2.67;;;1.38;;
23280;SDS011;11809;56.390;-3.266;2022-12-04T17:33:55;2.05;;;1.20;;
23280;SDS011;11809;56.390;-3.266;2022-12-04T17:36:24;8.43;;;1.30;;
23280;SDS011;11809;56.390;-3.266;2022-12-04T17:38:54;6.40;;;1.63;;
23280;SDS011;11809;56.390;-3.266;2022-12-04T17:41:22;4.75;;;1.33;;
23280;SDS011;11809;56.390;-3.266;2022-12-04T17:43:50;2.72;;;0.98;;
23280;SDS011;11809;56.390;-3.266;2022-12-04T17:46:18;3.45;;;1.10;;
23280;SDS011;11809;56.390;-3.266;2022-12-04T17:48:48;1.80;;;0.98;;